Portada
METAR-TAF:

METAR-TAF

Aeroports :

Adıyaman, Turquia

latitud: 37-43-54N, longitud: 38-28-08E, altitud: 675 m

Observació

L'informe es va fer fa 48 minuts, a les 07:50 UTC
Vent 7 kt del Est
Temperatura 10°C
Humitat 82%
Pressió 1021 hPa
Visibilitat 10 km o més
Núvols disperses a una alçada de 3500 ft
Cel ennuvolat a una alçada de 8000 ft

METAR: LTCP 060750Z 08007KT 9999 SCT035 BKN080 10/07 Q1021

Hora: 11:38 (08:38 UTC)

Pronòstic

L'informe es va fer fa 3 hores i 58 minuts, a les 04:40 UTC
Pronòstic vàlid del 06 a les 06 UTC al 06 a les 15 UTC
Vent 2 kt amb direcció variable
Visibilitat 10 km o més
Núvols disperses a una alçada de 4000 ft
Cel ennuvolat a una alçada de 10000 ft

TAF: LTCP 060440Z 0606/0615 VRB02KT 9999 SCT040 BKN100

Observacions i pronòstics meteorològics de més de 4000 aeroports (METAR i TAF).

Les estacions disponibles són els punts grocs i vermells al mapa.

Posi el ratolí al punt desitjat per veure el nom de l'estació.

Feu clic per veure les observacions i els pronòstics meteorològics.

Per canviar el mapa: feu clic els botons verds amb una creu de color negre per apropar; al botó verd amb un guió per allunyar la imatge; o en les fletxes verdes per a mapes adjacents.


METAR-TAF: